Aérodrome :
LOGIN :

S'inscrire | Disclaimer

   EN    FR    IT 

 










Légende :    VFR   VFR Marginal   IFR   IFR Intensif   IFR Très Intensif
Visi : 
Plafond : 
>= 8 km
>= 3000ft
5 à 8 km
1000 à 3000 ft
1500m à 5 km
500 à 1000 ft
800 à 1500m
200 à 500 ft
< 800m
< 200 ft
Symboles :   Orages  Brouillard  Fortes neiges  Fortes précipitations  Vent > 20 kt
SIGMETs :   Divers  Orages  Givrage  Turbulence  Onde Orograph.  Cendres Volcan.






- Altitude de l'aérodrome : 117 ft
- Code IATA : NWI


EGSH - Norwich

DERNIER METAR :
  • 041220Z 25014G24KT 9999 BKN016 19/15 Q1008

METARs EXPIRÉS :
  • 041150Z 24011KT 210V270 9999 BKN016 19/14 Q1008 NOSIG
  • 041120Z 24012KT 9999 -RA BKN016 19/15 Q1008 NOSIG
  • 041050Z 25012KT 220V280 9999 -RA BKN022 19/15 Q1008 NOSIG
  • 041020Z 25015KT 220V280 9999 -RA BKN022 18/14 Q1008 NOSIG
  • 040950Z 24015KT 9999 -RA BKN022 19/14 Q1008

TAF TAF EGSH
Valide du 04 à 09h jusqu'au 04 à 18h UTC


040759Z 0409/0418 23015KT 9999 SCT023
PROB30
TEMPO 0409/0418 8000 -RA BKN014
ATIS : +44 1603 420 640



MET'MAP, la Météo Aéronautique d'un coup d'oeil ! - Copyright ORBIFLY Décembre 2007 - Disclaimer

ORBIFLY MET'MAP TEAM :

Programmation & Développement : Alexandra Zaïnal
Sur une idée originale de : Baudouin d'Aumeries
Assistance à la programmation : Marc-Olivier Méhu
Soutien technique & logistique : Manuel Goepfert

Contact : metmap@orbifly.com




SOURCES & CREDITS :

   NOAA